Time;durP1;ratioP1;P1;durP2;ratioP2;P2;SDS_P1;SDS_P2;PMS_P1;PMS_P2;Temp;Humidity;BMP_temperature;BMP_pressure;BME280_temperature;BME280_humidity;BME280_pressure;Samples;Min_cycle;Max_cycle;Signal;HPM_P1;HPM_P2
2021/12/25 00:01:28;;;;;;;0.93;0.83;;;;;;;8.88;71.72;98218.72;5064117;28;20217;-79
2021/12/25 00:03:59;;;;;;;0.93;0.80;;;;;;;8.88;71.30;98218.72;5076717;28;20208;-79
2021/12/25 00:06:27;;;;;;;0.70;0.70;;;;;;;8.89;71.45;98211.53;5062816;28;20250;-78
2021/12/25 00:08:54;;;;;;;0.53;0.50;;;;;;;8.83;71.17;98224.81;5080047;28;20327;-78
2021/12/25 00:11:21;;;;;;;0.50;0.50;;;;;;;8.82;71.61;98223.19;5098410;28;20234;-79
2021/12/25 00:13:48;;;;;;;0.40;0.40;;;;;;;8.75;71.50;98208.38;5101432;28;20229;-79
2021/12/25 00:16:18;;;;;;;0.70;0.57;;;;;;;8.87;70.92;98226.97;5086143;28;20229;-79
2021/12/25 00:18:46;;;;;;;3.67;2.50;;;;;;;8.73;71.63;98213.13;5100218;28;20221;-79
2021/12/25 00:21:17;;;;;;;2.10;1.67;;;;;;;8.62;72.26;98209.50;5086284;28;20221;-79
2021/12/25 00:23:50;;;;;;;1.93;1.73;;;;;;;8.51;73.22;98210.38;5102624;22;20611;-79
2021/12/25 00:26:39;;;;;;;2.60;1.90;;;;;;;8.40;73.70;98208.56;5086889;28;20227;-79
2021/12/25 00:29:33;;;;;;;1.30;1.20;;;;;;;8.44;73.20;98208.91;5074571;28;20243;-79
2021/12/25 00:34:37;;;;;;;1.00;1.00;;;;;;;8.42;73.92;98225.16;5108608;23;20258;-78
2021/12/25 00:37:06;;;;;;;0.70;0.70;;;;;;;8.44;74.27;98225.75;5068318;28;20232;-79
2021/12/25 00:39:35;;;;;;;1.70;0.70;;;;;;;8.48;74.43;98224.22;5094222;23;20525;-79
2021/12/25 00:42:04;;;;;;;0.90;0.60;;;;;;;8.49;74.48;98217.78;5070668;28;20252;-79
2021/12/25 00:44:33;;;;;;;0.60;0.60;;;;;;;8.46;74.69;98226.28;5088296;28;20231;-79
2021/12/25 00:47:06;;;;;;;0.90;0.70;;;;;;;8.42;75.01;98224.34;5103461;28;20232;-79
2021/12/25 00:49:34;;;;;;;1.50;1.40;;;;;;;8.35;75.01;98233.28;5105455;28;20299;-79
2021/12/25 00:52:09;;;;;;;2.60;2.00;;;;;;;8.32;74.66;98240.97;5104493;28;20238;-78
2021/12/25 00:54:39;;;;;;;4.23;2.63;;;;;;;8.28;74.69;98248.63;5090759;23;20303;-79
2021/12/25 00:57:07;;;;;;;2.07;1.70;;;;;;;8.26;75.22;98272.06;5095630;23;20220;-79
2021/12/25 00:59:34;;;;;;;1.10;1.00;;;;;;;8.27;75.10;98264.88;5069583;28;20219;-79
2021/12/25 01:02:04;;;;;;;0.83;0.80;;;;;;;8.33;76.10;98266.63;5087633;28;20557;-79
2021/12/25 01:04:31;;;;;;;0.70;0.50;;;;;;;8.39;76.64;98282.50;5087482;28;20222;-79
2021/12/25 01:07:00;;;;;;;0.70;0.30;;;;;;;8.45;76.78;98275.38;5088246;28;20255;-79
2021/12/25 01:09:30;;;;;;;0.63;0.50;;;;;;;8.49;77.34;98276.53;5091573;23;20227;-79
2021/12/25 01:12:00;;;;;;;0.50;0.40;;;;;;;8.51;77.32;98260.28;5093655;23;20238;-79
2021/12/25 01:18:04;;;;;;;0.70;0.50;;;;;;;8.62;76.96;98262.09;5103320;28;20223;-79
2021/12/25 01:31:23;;;;;;;0.60;0.60;;;;;;;8.57;77.74;98257.47;5106163;28;20279;-79
2021/12/25 01:36:56;;;;;;;1.00;0.80;;;;;;;8.56;77.54;98263.03;5105338;28;20218;-79
2021/12/25 01:40:17;;;;;;;0.80;0.80;;;;;;;8.43;77.48;98245.47;5051084;28;20638;-79
2021/12/25 01:48:56;;;;;;;1.60;1.30;;;;;;;8.43;77.23;98241.97;5101573;28;20220;-79
2021/12/25 01:51:27;;;;;;;1.60;1.50;;;;;;;8.40;77.13;98251.25;5104409;28;20285;-79
2021/12/25 01:53:55;;;;;;;1.97;1.83;;;;;;;8.39;76.97;98249.66;5088249;23;20221;-80
2021/12/25 01:56:24;;;;;;;2.00;1.80;;;;;;;8.35;76.53;98267.22;5044912;28;20252;-79
2021/12/25 01:58:51;;;;;;;1.73;1.60;;;;;;;8.25;76.79;98264.31;5029304;28;20636;-79
2021/12/25 02:01:19;;;;;;;2.50;2.00;;;;;;;8.25;76.64;98272.31;5046986;28;20586;-79
2021/12/25 02:03:47;;;;;;;2.47;2.27;;;;;;;8.11;76.77;98268.28;5046408;28;20244;-79
2021/12/25 02:06:26;;;;;;;2.60;2.30;;;;;;;8.05;77.30;98262.03;5062670;28;20322;-79
2021/12/25 02:08:53;;;;;;;2.37;2.17;;;;;;;7.94;77.09;98252.19;5034943;28;20247;-79
2021/12/25 02:11:21;;;;;;;3.27;2.57;;;;;;;7.89;77.30;98252.09;5028863;28;20233;-79
2021/12/25 02:13:58;;;;;;;3.60;3.00;;;;;;;7.84;77.28;98246.66;5031617;23;20216;-79
2021/12/25 02:17:27;;;;;;;4.20;3.50;;;;;;;7.83;76.98;98253.88;5366245;22;21558;-79
2021/12/25 02:24:49;;;;;;;5.80;4.40;;;;;;;7.69;76.85;98239.19;5114440;28;20184;-79
2021/12/25 02:28:22;;;;;;;5.50;4.60;;;;;;;7.63;77.19;98249.94;5111860;28;20188;-78
2021/12/25 02:32:04;;;;;;;6.23;5.27;;;;;;;7.55;77.17;98252.97;5118926;22;20203;-78
2021/12/25 02:35:26;;;;;;;6.20;5.17;;;;;;;7.53;77.27;98264.69;5090210;22;20294;-79
2021/12/25 02:38:34;;;;;;;6.37;4.90;;;;;;;7.50;77.18;98269.66;5073768;28;20209;-79
2021/12/25 02:42:16;;;;;;;7.10;5.43;;;;;;;7.43;76.84;98266.28;5033225;28;20226;-79
2021/12/25 02:45:45;;;;;;;8.33;5.87;;;;;;;7.36;76.84;98258.44;5130208;22;20224;-79
2021/12/25 02:49:28;;;;;;;6.77;5.03;;;;;;;7.26;77.17;98249.41;5072838;28;20277;-79
2021/12/25 02:52:28;;;;;;;6.00;4.97;;;;;;;7.23;77.06;98239.22;5087748;23;20300;-79
2021/12/25 02:55:47;;;;;;;6.80;5.03;;;;;;;7.04;76.92;98242.00;5053506;23;20230;-79
2021/12/25 02:59:17;;;;;;;6.17;4.10;;;;;;;7.06;76.58;98253.19;5060855;23;20239;-81
2021/12/25 03:02:30;;;;;;;4.90;3.93;;;;;;;6.99;76.41;98257.84;5063859;23;20230;-78
2021/12/25 03:05:47;;;;;;;5.97;4.57;;;;;;;6.98;76.67;98272.19;5100097;22;20219;-79
2021/12/25 03:09:09;;;;;;;7.00;4.70;;;;;;;6.92;76.32;98251.78;5131199;28;20215;-79
2021/12/25 03:16:05;;;;;;;5.57;4.40;;;;;;;6.89;75.29;98264.75;5060590;28;20208;-79
2021/12/25 03:19:27;;;;;;;6.10;4.60;;;;;;;6.86;75.32;98259.91;5076810;28;20246;-79
2021/12/25 03:22:48;;;;;;;5.73;4.47;;;;;;;6.74;75.76;98267.84;5130725;22;20232;-79
2021/12/25 03:26:23;;;;;;;6.43;4.40;;;;;;;6.68;75.33;98260.75;5184948;22;20216;-81
2021/12/25 03:30:07;;;;;;;5.33;4.20;;;;;;;6.64;75.86;98259.59;5115840;28;20200;-79
2021/12/25 03:33:44;;;;;;;5.07;4.27;;;;;;;6.66;75.79;98270.03;5115802;22;20254;-78
2021/12/25 03:36:33;;;;;;;5.73;4.30;;;;;;;6.57;77.10;98258.91;5070367;23;20236;-79
2021/12/25 03:40:03;;;;;;;6.13;4.30;;;;;;;6.65;77.22;98274.53;5112618;22;20234;-79
2021/12/25 03:43:09;;;;;;;5.27;3.77;;;;;;;6.68;77.55;98274.06;5059315;23;20250;-79
2021/12/25 03:46:24;;;;;;;5.10;4.10;;;;;;;6.63;77.59;98276.59;5035453;28;20209;-79
2021/12/25 03:59:35;;;;;;;5.23;3.80;;;;;;;6.55;78.98;98275.09;5057630;28;20226;-78
2021/12/25 04:03:09;;;;;;;6.17;3.90;;;;;;;6.56;79.22;98287.34;5017020;28;20227;-79
2021/12/25 04:06:21;;;;;;;4.17;3.60;;;;;;;6.52;79.31;98272.06;5017234;28;20219;-79
2021/12/25 04:10:02;;;;;;;4.33;3.50;;;;;;;6.46;80.73;98270.31;5118786;22;20260;-79
2021/12/25 04:16:29;;;;;;;3.80;2.97;;;;;;;6.40;80.39;98280.00;5070287;23;20675;-81
2021/12/25 04:20:05;;;;;;;3.90;3.30;;;;;;;6.35;81.34;98277.19;5084835;23;20261;-79
2021/12/25 04:23:16;;;;;;;3.60;2.90;;;;;;;6.40;80.23;98292.47;5083625;23;20222;-80
2021/12/25 04:26:46;;;;;;;4.23;3.30;;;;;;;6.40;81.89;98281.84;5162529;23;20260;-81
2021/12/25 04:29:41;;;;;;;3.67;3.00;;;;;;;6.36;81.39;98302.78;5056612;28;20222;-80
2021/12/25 05:03:47;;;;;;;3.40;2.80;;;;;;;6.15;81.44;98287.31;5083047;22;20256;-81
2021/12/25 05:06:55;;;;;;;3.07;2.63;;;;;;;6.07;81.51;98283.06;5073936;23;20256;-80
2021/12/25 05:10:01;;;;;;;4.07;3.03;;;;;;;6.09;81.48;98288.19;5066219;23;20233;-78
2021/12/25 05:13:18;;;;;;;3.33;2.70;;;;;;;6.14;81.18;98306.94;5070362;23;20236;-80
2021/12/25 05:17:13;;;;;;;3.27;2.87;;;;;;;5.93;81.36;98275.47;5096171;22;20225;-80
2021/12/25 05:20:32;;;;;;;3.40;2.93;;;;;;;6.06;81.77;98296.63;5101433;22;20184;-80
2021/12/25 05:24:15;;;;;;;3.03;2.60;;;;;;;6.05;81.15;98292.31;5070412;22;21144;-79
2021/12/25 05:27:06;;;;;;;3.33;3.03;;;;;;;6.07;81.67;98311.50;5056587;28;20197;-80
2021/12/25 05:30:21;;;;;;;5.93;4.30;;;;;;;6.05;82.44;98308.28;5076288;23;20319;-81
2021/12/25 05:34:03;;;;;;;10.67;7.40;;;;;;;6.04;82.66;98304.81;5077169;22;20209;-80
2021/12/25 05:37:20;;;;;;;13.67;9.57;;;;;;;6.07;82.59;98303.53;5076160;23;20256;-80
2021/12/25 05:40:49;;;;;;;4.57;4.03;;;;;;;5.99;83.76;98302.00;5082374;23;20225;-80
2021/12/25 05:43:20;;;;;;;6.60;4.47;;;;;;;5.93;83.80;98294.09;5074883;22;20217;-80
2021/12/25 05:46:08;;;;;;;4.57;4.10;;;;;;;5.94;83.91;98298.38;5063155;23;20256;-80
2021/12/25 05:48:42;;;;;;;9.67;7.37;;;;;;;5.94;84.10;98309.00;5056117;28;20284;-80
2021/12/25 05:51:40;;;;;;;4.03;3.53;;;;;;;5.96;84.41;98310.44;5072584;28;20225;-80
2021/12/25 05:54:48;;;;;;;6.17;5.10;;;;;;;5.91;84.91;98304.16;5060948;28;20217;-80
2021/12/25 05:58:04;;;;;;;5.40;4.20;;;;;;;5.92;85.04;98311.91;5261491;23;20201;-80
2021/12/25 06:01:15;;;;;;;4.60;3.80;;;;;;;5.93;85.74;98315.34;4981287;28;20257;-80
2021/12/25 06:04:19;;;;;;;9.33;6.00;;;;;;;5.82;86.01;98290.31;5112758;22;20247;-80
2021/12/25 06:07:23;;;;;;;10.93;9.70;;;;;;;5.92;85.67;98301.28;5100671;22;20216;-80
2021/12/25 06:10:19;;;;;;;7.47;6.70;;;;;;;5.94;86.36;98299.19;5049882;23;20245;-81
2021/12/25 06:13:29;;;;;;;4.57;4.17;;;;;;;5.97;86.01;98312.03;5075812;23;20230;-80
2021/12/25 06:16:34;;;;;;;4.40;3.63;;;;;;;5.99;85.68;98309.97;5069217;22;20223;-80
2021/12/25 06:19:53;;;;;;;4.17;3.77;;;;;;;5.94;86.50;98306.34;5112954;22;20256;-80
2021/12/25 06:22:56;;;;;;;4.50;4.13;;;;;;;5.93;87.11;98292.25;5179807;22;20237;-80
2021/12/25 06:26:17;;;;;;;4.37;3.97;;;;;;;5.91;86.73;98304.16;5077567;23;20202;-80
2021/12/25 06:29:53;;;;;;;3.97;3.63;;;;;;;5.94;87.33;98307.16;5074672;23;20231;-80
2021/12/25 06:32:58;;;;;;;4.23;3.83;;;;;;;5.91;86.66;98304.97;5207755;23;20279;-81
2021/12/25 06:36:20;;;;;;;4.10;3.70;;;;;;;5.79;87.20;98306.69;5078825;23;20226;31
2021/12/25 06:39:40;;;;;;;4.10;3.70;;;;;;;5.74;87.80;98309.19;5094341;23;20240;31
2021/12/25 06:47:17;;;;;;;4.83;4.43;;;;;;;5.83;88.31;98321.19;5072564;23;20249;-80
2021/12/25 06:50:38;;;;;;;4.37;3.97;;;;;;;5.89;88.68;98311.50;5099444;22;20232;-80
2021/12/25 06:53:50;;;;;;;4.10;3.70;;;;;;;5.86;88.54;98296.00;5036187;23;20199;-80
2021/12/25 06:57:51;;;;;;;10.13;7.83;;;;;;;5.92;88.64;98303.13;5052775;23;20301;-80
2021/12/25 07:00:27;;;;;;;11.23;9.87;;;;;;;5.84;88.76;98290.88;5085972;23;20236;-79
2021/12/25 07:04:01;;;;;;;8.10;6.50;;;;;;;5.91;88.99;98302.31;5069139;23;20253;-80
2021/12/25 07:06:51;;;;;;;5.70;4.90;;;;;;;5.88;88.66;98299.28;5075445;23;20228;-81
2021/12/25 07:10:17;;;;;;;7.20;4.60;;;;;;;5.86;88.55;98299.47;5093139;23;20217;-80
2021/12/25 07:14:03;;;;;;;6.40;4.87;;;;;;;5.94;88.66;98306.34;5066000;28;20250;-81
2021/12/25 07:16:59;;;;;;;6.87;4.97;;;;;;;5.88;88.44;98296.63;5049800;23;20228;-80
2021/12/25 07:20:27;;;;;;;5.20;4.70;;;;;;;5.95;88.73;98322.09;5098450;22;20224;-81
2021/12/25 07:23:46;;;;;;;7.37;6.03;;;;;;;5.91;88.30;98322.75;5098470;23;20193;-79
2021/12/25 07:27:34;;;;;;;8.43;7.57;;;;;;;6.04;85.58;98336.72;5072013;22;20192;-82
2021/12/25 07:30:43;;;;;;;6.33;5.60;;;;;;;5.82;86.22;98314.22;5102692;22;20629;-79
2021/12/25 07:33:19;;;;;;;7.83;5.70;;;;;;;5.84;86.91;98336.06;5066615;28;20205;-80
2021/12/25 07:36:27;;;;;;;6.87;5.40;;;;;;;5.88;87.43;98337.28;5078410;23;20241;-80
2021/12/25 07:39:24;;;;;;;5.50;4.80;;;;;;;5.97;86.99;98343.16;5077384;23;20219;-80
2021/12/25 07:42:32;;;;;;;6.33;5.73;;;;;;;6.02;87.44;98352.06;5105116;23;20244;-80
2021/12/25 07:45:57;;;;;;;8.97;7.50;;;;;;;6.07;86.70;98352.22;5090012;23;20285;-80
2021/12/25 07:49:31;;;;;;;6.07;5.47;;;;;;;6.08;86.94;98359.16;5066131;28;20217;-80
2021/12/25 07:52:56;;;;;;;8.20;6.77;;;;;;;6.15;86.80;98380.38;5075856;28;20248;-81
2021/12/25 07:55:58;;;;;;;13.07;10.47;;;;;;;6.19;87.14;98384.22;5077504;28;20213;-80
2021/12/25 07:58:29;;;;;;;11.40;9.53;;;;;;;6.19;87.13;98390.34;5062007;28;20181;-81
2021/12/25 08:01:43;;;;;;;13.27;11.83;;;;;;;6.23;86.92;98393.38;5091479;22;20221;-80
2021/12/25 08:04:13;;;;;;;10.37;8.83;;;;;;;6.15;87.51;98383.84;5039399;28;20199;-80
2021/12/25 08:06:49;;;;;;;9.37;7.60;;;;;;;6.12;86.93;98384.28;5053534;28;20289;-81
2021/12/25 08:10:16;;;;;;;14.20;6.73;;;;;;;6.20;87.41;98399.94;5060576;28;20234;-79
2021/12/25 08:13:27;;;;;;;6.13;5.53;;;;;;;6.31;87.29;98416.19;5097466;23;20217;-82
2021/12/25 08:16:26;;;;;;;5.63;5.13;;;;;;;6.38;86.68;98415.09;5095951;22;20217;-81
2021/12/25 08:19:22;;;;;;;5.87;4.93;;;;;;;6.47;84.80;98399.66;5079417;28;20253;-81
2021/12/25 08:22:55;;;;;;;5.23;4.60;;;;;;;6.31;86.28;98393.06;5088001;23;20304;-81
2021/12/25 08:26:28;;;;;;;5.37;4.87;;;;;;;6.10;86.53;98386.34;5071861;23;20244;-82
2021/12/25 08:29:48;;;;;;;5.63;5.13;;;;;;;5.99;87.84;98384.41;4977851;28;20236;-82
2021/12/25 08:32:42;;;;;;;5.73;5.10;;;;;;;5.88;86.68;98398.41;5054425;28;20222;-81
2021/12/25 08:35:37;;;;;;;7.03;6.07;;;;;;;5.95;86.83;98409.81;5060738;23;20241;-81
2021/12/25 08:38:25;;;;;;;6.57;5.97;;;;;;;5.78;85.95;98427.34;5049085;23;20230;-81
2021/12/25 08:41:25;;;;;;;6.10;5.50;;;;;;;5.61;86.98;98435.03;5054928;28;20186;-82
2021/12/25 08:44:40;;;;;;;7.27;5.87;;;;;;;5.57;87.37;98433.84;5063683;23;20256;-82
2021/12/25 08:47:50;;;;;;;6.10;5.50;;;;;;;5.53;87.61;98437.13;5138780;23;20229;-82
2021/12/25 08:50:39;;;;;;;6.90;5.60;;;;;;;5.25;87.52;98418.94;5062585;23;20225;-83
2021/12/25 08:53:42;;;;;;;6.67;5.90;;;;;;;5.30;88.38;98440.38;5075010;28;20193;-83
2021/12/25 08:56:18;;;;;;;7.37;6.00;;;;;;;5.31;88.26;98426.06;5055497;23;20262;-83
2021/12/25 08:58:49;;;;;;;7.57;6.87;;;;;;;5.24;87.62;98439.38;5012102;28;20187;-81
2021/12/25 09:01:16;;;;;;;7.60;6.50;;;;;;;5.32;87.84;98423.19;5011494;28;20238;-81
2021/12/25 09:03:46;;;;;;;7.20;6.50;;;;;;;5.16;87.37;98431.69;5030878;28;20206;-81
2021/12/25 09:06:26;;;;;;;7.10;6.40;;;;;;;5.36;86.88;98422.75;5041998;23;20291;-83
2021/12/25 09:09:27;;;;;;;9.97;7.73;;;;;;;5.46;87.06;98420.44;5035452;28;20233;-83
2021/12/25 09:13:12;;;;;;;7.20;6.50;;;;;;;5.33;86.28;98408.88;5159748;23;20293;-82
2021/12/25 09:15:54;;;;;;;7.00;6.27;;;;;;;5.55;86.64;98422.59;5165278;23;20232;-82
2021/12/25 09:19:00;;;;;;;7.70;6.90;;;;;;;5.49;86.38;98425.31;5018929;28;20259;-82
2021/12/25 09:22:12;;;;;;;7.57;6.27;;;;;;;5.12;86.33;98403.94;5055474;28;20221;-83
2021/12/25 09:24:51;;;;;;;7.83;6.77;;;;;;;5.00;86.45;98418.06;5073968;28;20214;-82
2021/12/25 09:28:03;;;;;;;7.03;6.33;;;;;;;5.05;87.02;98416.41;5073122;28;20230;-82
2021/12/25 09:31:03;;;;;;;8.83;7.93;;;;;;;5.37;85.51;98403.94;5073928;28;20256;-82
2021/12/25 09:34:26;;;;;;;17.73;15.77;;;;;;;5.32;84.26;98409.91;5067318;23;20222;-82
2021/12/25 09:38:10;;;;;;;23.07;15.80;;;;;;;4.99;85.67;98395.25;5135254;23;20636;-83
2021/12/25 09:41:52;;;;;;;8.20;7.40;;;;;;;4.94;85.96;98425.06;4992764;28;20243;-82
2021/12/25 09:44:54;;;;;;;15.67;13.67;;;;;;;5.00;86.00;98410.09;5019007;23;20301;-81
2021/12/25 09:47:26;;;;;;;32.40;22.67;;;;;;;5.05;86.08;98397.00;5024103;23;20230;-81
2021/12/25 09:50:01;;;;;;;32.37;25.53;;;;;;;5.04;86.42;98414.78;5048128;28;20225;-82
2021/12/25 09:53:18;;;;;;;14.27;12.50;;;;;;;4.94;85.60;98409.16;5043523;23;20225;-81
2021/12/25 09:56:29;;;;;;;31.87;22.33;;;;;;;5.01;86.22;98401.94;5034432;28;20226;-82
2021/12/25 09:59:31;;;;;;;12.27;10.50;;;;;;;4.83;86.03;98384.09;5066177;23;20260;-82
2021/12/25 10:02:27;;;;;;;13.73;12.33;;;;;;;4.88;86.53;98394.06;5062573;23;20229;-81
2021/12/25 10:05:54;;;;;;;30.57;22.03;;;;;;;4.87;86.73;98414.47;5073869;28;20206;-81
2021/12/25 10:09:23;;;;;;;33.10;22.23;;;;;;;4.74;87.05;98388.00;5043474;23;20217;-81
2021/12/25 10:12:27;;;;;;;23.73;16.97;;;;;;;4.82;87.30;98456.75;5054147;23;20294;-81
2021/12/25 10:15:57;;;;;;;10.87;9.60;;;;;;;4.95;87.03;98425.84;5073074;23;20213;-82
2021/12/25 10:22:10;;;;;;;10.63;8.63;;;;;;;4.61;85.10;98414.63;5049914;23;20225;-83
2021/12/25 10:25:32;;;;;;;9.07;8.17;;;;;;;4.68;85.25;98451.72;5070095;28;20217;-83
2021/12/25 10:28:17;;;;;;;11.37;10.17;;;;;;;4.71;86.19;98382.31;5066998;28;20218;-83
2021/12/25 10:30:54;;;;;;;13.77;12.00;;;;;;;4.69;85.52;98430.28;5063135;28;20617;-81
2021/12/25 10:33:38;;;;;;;25.03;22.10;;;;;;;4.74;85.66;98377.41;5061664;28;20633;-82
2021/12/25 10:36:33;;;;;;;18.17;13.53;;;;;;;4.87;84.92;98421.63;5064302;28;20201;-82
2021/12/25 10:39:12;;;;;;;10.63;9.57;;;;;;;4.60;84.62;98402.38;5075051;28;20220;-83
2021/12/25 10:42:10;;;;;;;10.93;9.83;;;;;;;4.75;84.83;98387.00;5061985;28;20216;-82
2021/12/25 10:45:19;;;;;;;15.50;13.90;;;;;;;4.64;84.94;98403.56;5065246;28;20303;-82
2021/12/25 10:48:10;;;;;;;10.90;9.80;;;;;;;4.67;85.31;98381.09;5084788;22;20230;-81
2021/12/25 10:50:51;;;;;;;32.10;24.57;;;;;;;4.68;84.50;98398.66;5042475;23;20218;-82
2021/12/25 10:53:52;;;;;;;32.77;24.93;;;;;;;4.52;84.89;98375.28;5074423;23;20637;-81
2021/12/25 10:56:41;;;;;;;13.83;10.53;;;;;;;4.59;84.32;98390.13;5054289;28;20234;-81
2021/12/25 10:59:54;;;;;;;18.97;16.60;;;;;;;4.62;84.36;98423.41;5141622;23;20277;-81
2021/12/25 11:03:28;;;;;;;9.13;8.23;;;;;;;4.31;83.95;98414.31;5076773;23;20212;-81
2021/12/25 11:06:47;;;;;;;10.57;9.53;;;;;;;4.31;84.14;98424.91;5084362;23;20234;-80
2021/12/25 11:10:14;;;;;;;11.37;10.17;;;;;;;4.26;83.96;98426.56;5021870;28;20306;-81
2021/12/25 11:13:35;;;;;;;12.40;10.37;;;;;;;4.23;82.59;98422.50;5055717;23;20225;-81
2021/12/25 11:16:37;;;;;;;60.70;30.10;;;;;;;4.18;83.54;98421.50;5026961;28;20230;-81
2021/12/25 11:19:27;;;;;;;62.63;34.03;;;;;;;3.83;84.03;98402.38;5030490;28;20221;-81
2021/12/25 11:22:25;;;;;;;40.70;25.70;;;;;;;4.10;84.30;98392.56;4996564;28;20257;-81
2021/12/25 11:25:08;;;;;;;10.67;9.67;;;;;;;4.21;83.72;98386.59;5036064;23;20236;-81
2021/12/25 11:27:57;;;;;;;8.90;8.10;;;;;;;4.17;83.76;98402.13;5088543;23;20248;-81
2021/12/25 11:30:41;;;;;;;10.00;8.47;;;;;;;3.87;83.66;98380.56;5079156;23;20276;-81
2021/12/25 11:33:42;;;;;;;15.00;11.00;;;;;;;3.82;84.56;98375.09;5013326;23;20233;-82
2021/12/25 11:36:48;;;;;;;38.67;24.17;;;;;;;3.73;85.45;98391.41;5070689;23;20281;-81
2021/12/25 11:40:34;;;;;;;186.73;69.27;;;;;;;3.63;84.62;98383.88;5052979;28;20306;-81
2021/12/25 11:43:40;;;;;;;10.43;8.80;;;;;;;3.44;85.09;98374.94;5054345;28;20213;-81
2021/12/25 11:46:55;;;;;;;9.97;8.27;;;;;;;3.66;85.11;98369.41;5056774;23;20225;-81
2021/12/25 11:50:08;;;;;;;7.93;7.00;;;;;;;3.68;84.71;98370.03;5053197;28;20225;-81
2021/12/25 11:53:41;;;;;;;8.63;7.53;;;;;;;3.56;84.49;98372.47;5050111;23;20694;-81
2021/12/25 11:57:34;;;;;;;9.47;8.57;;;;;;;3.48;84.49;98394.69;5062588;23;20230;-81
2021/12/25 12:00:01;;;;;;;7.93;6.93;;;;;;;3.33;85.36;98385.31;5036389;23;20217;-81
2021/12/25 12:03:38;;;;;;;11.83;10.67;;;;;;;3.28;84.71;98422.16;5044709;28;20277;-81
2021/12/25 12:07:02;;;;;;;6.50;5.90;;;;;;;3.15;84.33;98415.03;5160763;23;20227;-82
2021/12/25 12:10:31;;;;;;;6.93;6.23;;;;;;;3.08;84.60;98393.84;5361866;23;20237;-81
2021/12/25 12:14:13;;;;;;;13.03;11.67;;;;;;;3.06;85.75;98390.59;5100731;23;4383299;-81
2021/12/25 12:17:40;;;;;;;12.23;10.50;;;;;;;3.00;85.03;98383.44;5088478;23;20260;-81
2021/12/25 12:20:36;;;;;;;34.93;26.00;;;;;;;3.23;85.09;98411.34;5096876;23;20255;-81
2021/12/25 12:23:56;;;;;;;15.23;13.57;;;;;;;3.13;83.50;98384.50;5052880;28;20220;-81
2021/12/25 12:27:11;;;;;;;8.47;7.67;;;;;;;3.03;84.75;98396.25;5053301;23;20229;-81
2021/12/25 12:30:13;;;;;;;7.70;6.90;;;;;;;2.66;84.92;98399.44;5126270;23;20224;-81
2021/12/25 12:32:56;;;;;;;10.17;7.97;;;;;;;2.75;84.69;98386.88;5057191;28;20253;-81
2021/12/25 12:36:22;;;;;;;10.07;8.93;;;;;;;2.75;84.34;98402.75;5237069;23;20650;-81
2021/12/25 12:39:43;;;;;;;13.03;9.43;;;;;;;2.67;85.01;98393.97;5051801;28;20241;-81
2021/12/25 12:42:18;;;;;;;16.93;10.60;;;;;;;2.53;85.02;98408.16;5026698;23;20227;-81
2021/12/25 12:46:09;;;;;;;50.57;20.53;;;;;;;2.38;86.39;98409.31;5052338;23;20660;-81
2021/12/25 12:49:05;;;;;;;45.67;26.33;;;;;;;2.41;85.73;98407.09;5146766;23;20230;-82
2021/12/25 12:51:42;;;;;;;10.73;9.53;;;;;;;2.38;86.26;98410.09;5060731;23;20257;-81
2021/12/25 12:55:17;;;;;;;16.73;13.57;;;;;;;2.50;85.58;98408.56;5022148;28;20233;-81
2021/12/25 12:58:22;;;;;;;23.33;18.63;;;;;;;2.48;85.82;98407.09;5050930;28;20252;-81
2021/12/25 13:01:03;;;;;;;10.47;9.20;;;;;;;2.31;85.72;98414.56;5050197;28;20241;-81
2021/12/25 13:04:12;;;;;;;28.27;20.70;;;;;;;2.20;86.39;98408.00;5054240;28;20222;-81
2021/12/25 13:06:55;;;;;;;27.97;18.37;;;;;;;2.46;86.28;98432.94;5033403;23;20226;-82
2021/12/25 13:12:56;;;;;;;24.43;16.83;;;;;;;2.26;86.40;98418.81;5073769;23;20288;-81
2021/12/25 13:15:40;;;;;;;10.93;9.30;;;;;;;2.08;87.28;98403.47;5091738;23;20230;-82
2021/12/25 13:18:46;;;;;;;8.77;7.17;;;;;;;2.05;86.64;98406.50;4994615;28;20369;-81
2021/12/25 13:21:27;;;;;;;11.27;9.60;;;;;;;2.01;86.63;98414.00;4991627;28;20180;-82
2021/12/25 13:24:16;;;;;;;18.10;15.07;;;;;;;2.08;87.08;98403.47;5031477;28;20198;-82
2021/12/25 13:26:51;;;;;;;18.83;13.83;;;;;;;2.21;87.32;98414.94;5032633;28;20162;-81
2021/12/25 13:30:04;;;;;;;80.23;32.40;;;;;;;1.98;86.99;98418.84;5043471;23;20234;-81
2021/12/25 13:33:47;;;;;;;41.60;23.90;;;;;;;2.11;86.62;98422.38;5057589;23;20237;-81
2021/12/25 13:37:27;;;;;;;22.33;15.70;;;;;;;1.99;86.43;98429.22;5034323;28;20214;-81
2021/12/25 13:40:48;;;;;;;16.10;12.13;;;;;;;2.12;87.02;98445.16;5042994;23;20223;-82
2021/12/25 13:43:55;;;;;;;12.87;10.70;;;;;;;2.09;86.10;98464.06;5069248;23;20230;-82
2021/12/25 13:51:09;;;;;;;11.87;9.57;;;;;;;1.80;85.76;98464.25;5064106;23;20246;-83
2021/12/25 13:54:47;;;;;;;18.67;14.33;;;;;;;1.86;86.07;98474.06;5085824;23;20214;-81
2021/12/25 13:57:34;;;;;;;10.37;9.10;;;;;;;1.65;85.37;98466.16;5049386;23;20281;-83
2021/12/25 14:00:48;;;;;;;9.37;7.77;;;;;;;1.50;85.05;98473.31;5030896;28;20203;-82
2021/12/25 14:03:45;;;;;;;9.27;8.27;;;;;;;1.52;85.93;98487.16;5031581;28;20567;-82
2021/12/25 14:06:59;;;;;;;9.03;7.67;;;;;;;1.60;85.56;98494.94;5036318;28;20198;-82
2021/12/25 14:10:41;;;;;;;10.20;7.77;;;;;;;1.42;85.35;98513.88;5035368;28;20283;-82
2021/12/25 14:13:23;;;;;;;11.10;8.93;;;;;;;1.36;85.47;98516.44;5049322;23;20269;-83
2021/12/25 14:16:36;;;;;;;7.90;6.57;;;;;;;0.93;86.24;98503.22;5041881;23;20244;-81
2021/12/25 14:20:47;;;;;;;12.20;8.97;;;;;;;1.11;86.17;98542.38;5044092;23;20253;-81
2021/12/25 14:23:59;;;;;;;9.40;8.17;;;;;;;0.93;86.12;98555.16;5071663;23;20217;-81
2021/12/25 14:26:48;;;;;;;33.10;19.33;;;;;;;0.79;86.05;98544.41;5043362;23;20229;-81
2021/12/25 14:29:26;;;;;;;27.20;17.57;;;;;;;0.62;86.21;98548.25;5030573;23;20234;-83
2021/12/25 14:31:55;;;;;;;31.23;19.93;;;;;;;0.73;85.59;98568.06;5006962;28;20249;-81
2021/12/25 14:34:33;;;;;;;12.40;10.40;;;;;;;0.44;86.69;98559.16;5009076;28;20230;-82
2021/12/25 14:37:03;;;;;;;9.43;7.30;;;;;;;0.39;86.03;98569.41;5007344;28;20230;-83
2021/12/25 14:39:31;;;;;;;10.27;8.30;;;;;;;0.41;86.29;98588.53;5004906;28;20254;-81
2021/12/25 14:41:58;;;;;;;10.23;8.47;;;;;;;0.42;86.33;98584.06;5035646;23;20252;-81
2021/12/25 14:44:31;;;;;;;11.57;8.13;;;;;;;0.49;85.49;98584.97;5026732;28;20234;-83
2021/12/25 14:47:13;;;;;;;11.17;8.60;;;;;;;0.23;85.68;98581.94;5027924;28;20210;-82
2021/12/25 14:49:47;;;;;;;10.27;7.40;;;;;;;0.26;85.94;98595.56;5026270;28;20261;-82
2021/12/25 14:52:17;;;;;;;10.97;9.30;;;;;;;0.16;86.72;98586.28;5027248;28;20242;-81
2021/12/25 14:54:43;;;;;;;9.47;7.93;;;;;;;0.22;86.68;98586.41;5009372;28;20258;-81
2021/12/25 14:57:29;;;;;;;13.03;10.23;;;;;;;0.12;86.22;98575.28;5024467;28;20229;-82
2021/12/25 15:00:14;;;;;;;53.30;29.10;;;;;;;0.08;86.66;98581.91;5020618;28;20227;-83
2021/12/25 15:02:46;;;;;;;19.03;13.63;;;;;;;0.13;86.79;98599.81;5034609;28;20216;-82
2021/12/25 15:05:42;;;;;;;11.13;8.77;;;;;;;0.08;87.30;98602.16;5119368;23;20198;-81
2021/12/25 15:08:35;;;;;;;10.63;7.97;;;;;;;-0.05;87.78;98614.09;5005452;28;20226;-85
2021/12/25 15:11:16;;;;;;;10.97;9.00;;;;;;;-0.20;88.52;98586.09;5024627;28;20290;-85
2021/12/25 15:14:02;;;;;;;10.50;8.60;;;;;;;-0.10;88.79;98599.84;5024254;28;20242;-86
2021/12/25 15:17:10;;;;;;;9.90;7.67;;;;;;;0.07;88.74;98616.31;5016326;28;20230;-82
2021/12/25 15:20:11;;;;;;;10.73;8.30;;;;;;;-0.01;88.29;98611.97;5027225;28;20226;-85
2021/12/25 15:23:00;;;;;;;10.77;8.43;;;;;;;-0.08;88.57;98614.47;5011952;28;20257;-82
2021/12/25 15:25:42;;;;;;;10.30;7.77;;;;;;;-0.04;88.93;98618.38;5020906;23;20214;-81
2021/12/25 15:28:26;;;;;;;11.73;8.70;;;;;;;-0.05;88.99;98608.03;5116250;23;20226;-82
2021/12/25 15:31:01;;;;;;;9.37;7.83;;;;;;;-0.07;88.97;98616.09;5029316;28;20254;-82
2021/12/25 15:33:30;;;;;;;9.93;8.03;;;;;;;-0.04;89.20;98625.44;5023189;28;20301;-81
2021/12/25 15:36:17;;;;;;;9.90;8.00;;;;;;;-0.16;89.07;98625.06;5036372;28;20210;-82
2021/12/25 15:38:46;;;;;;;9.17;7.13;;;;;;;-0.14;88.77;98638.84;5052231;28;20222;-94
2021/12/25 15:41:15;;;;;;;11.33;7.77;;;;;;;-0.34;88.18;98631.59;5021712;28;20216;-89
2021/12/25 15:43:43;;;;;;;11.07;8.20;;;;;;;-0.30;88.58;98627.63;5033937;28;20217;-82
2021/12/25 15:46:16;;;;;;;8.70;6.73;;;;;;;-0.27;87.94;98656.22;5023591;28;20182;-86
2021/12/25 15:48:47;;;;;;;10.10;7.73;;;;;;;-0.25;87.80;98665.59;5054262;28;20220;-82